createdAt,value
2019-01-12T00:02:13.623Z,4.73
2019-01-12T00:07:06.557Z,5.13
2019-01-12T00:11:59.421Z,5.27
2019-01-12T00:16:52.309Z,5.30
2019-01-12T00:21:45.170Z,4.77
2019-01-12T00:26:38.102Z,4.43
2019-01-12T00:31:31.061Z,3.50
2019-01-12T00:36:25.165Z,3.43
2019-01-12T00:41:18.076Z,3.40
2019-01-12T00:46:10.915Z,3.43
2019-01-12T00:51:03.954Z,4.30
2019-01-12T00:55:56.880Z,3.97
2019-01-12T01:00:49.829Z,3.70
2019-01-12T01:05:43.866Z,3.53
2019-01-12T01:10:36.756Z,3.50
2019-01-12T01:15:29.712Z,3.50
2019-01-12T01:20:22.675Z,3.63
2019-01-12T01:25:15.735Z,4.10
2019-01-12T01:30:15.807Z,4.13
2019-01-12T01:35:08.991Z,4.10
2019-01-12T01:40:01.938Z,4.80
2019-01-12T01:44:54.815Z,4.43
2019-01-12T01:49:47.738Z,4.70
2019-01-12T01:54:40.599Z,5.60
2019-01-12T01:59:33.475Z,6.13
2019-01-12T02:04:26.424Z,5.80
2019-01-12T02:09:19.291Z,7.00
2019-01-12T02:14:12.145Z,6.23
2019-01-12T02:19:04.956Z,7.43
2019-01-12T02:23:57.879Z,7.50
2019-01-12T02:28:50.752Z,8.33
2019-01-12T02:33:43.716Z,8.37
2019-01-12T02:38:36.604Z,7.53
2019-01-12T02:43:29.522Z,7.37
2019-01-12T02:48:22.399Z,7.37
2019-01-12T02:53:15.258Z,7.70
2019-01-12T02:58:08.165Z,8.33
2019-01-12T03:03:01.292Z,8.07
2019-01-12T03:07:54.359Z,8.30
2019-01-12T03:12:47.252Z,7.30
2019-01-12T03:17:40.208Z,8.00
2019-01-12T03:22:33.100Z,8.27
2019-01-12T03:27:26.015Z,8.80
2019-01-12T03:32:19.533Z,8.03
2019-01-12T03:37:12.630Z,8.83
2019-01-12T03:42:08.543Z,9.20
2019-01-12T03:47:01.459Z,10.17
2019-01-12T03:51:54.321Z,10.13
2019-01-12T03:56:48.111Z,10.50
2019-01-12T04:01:41.045Z,10.20
2019-01-12T04:06:34.039Z,9.77
2019-01-12T04:11:26.982Z,9.17
2019-01-12T04:16:19.873Z,9.43
2019-01-12T04:21:12.753Z,9.43
2019-01-12T04:26:05.624Z,9.03
2019-01-12T04:30:58.509Z,8.97
2019-01-12T04:35:51.431Z,8.60
2019-01-12T04:40:44.389Z,8.53
2019-01-12T04:45:37.663Z,9.07
2019-01-12T04:50:30.574Z,8.70
2019-01-12T04:55:23.527Z,8.00
2019-01-12T05:00:18.157Z,6.53
2019-01-12T05:05:11.331Z,6.63
2019-01-12T05:10:05.956Z,6.80
2019-01-12T05:14:58.780Z,6.60
2019-01-12T05:19:51.663Z,6.87
2019-01-12T05:24:44.562Z,6.33
2019-01-12T05:29:37.498Z,6.03
2019-01-12T05:34:30.389Z,6.23
2019-01-12T05:39:23.263Z,6.47
2019-01-12T05:44:16.297Z,6.37
2019-01-12T05:49:09.160Z,7.10
2019-01-12T05:54:02.042Z,7.07
2019-01-12T05:58:54.882Z,6.87
2019-01-12T06:03:47.815Z,6.83
2019-01-12T06:08:40.767Z,6.57
2019-01-12T06:13:33.668Z,6.00
2019-01-12T06:18:26.589Z,6.30
2019-01-12T06:23:19.489Z,4.97
2019-01-12T06:28:12.364Z,4.30
2019-01-12T06:33:05.274Z,4.60
2019-01-12T06:37:58.196Z,4.80
2019-01-12T06:42:51.053Z,5.13
2019-01-12T06:47:44.091Z,5.03
2019-01-12T06:52:36.993Z,4.93
2019-01-12T06:57:29.979Z,5.80
2019-01-12T07:02:22.847Z,5.30
2019-01-12T07:07:15.700Z,5.67
2019-01-12T07:12:08.567Z,5.53
2019-01-12T07:17:01.481Z,6.33
2019-01-12T07:21:54.398Z,6.70
2019-01-12T07:26:47.420Z,6.17
2019-01-12T07:31:40.295Z,7.53
2019-01-12T07:36:37.986Z,7.50
2019-01-12T07:41:30.976Z,8.00
2019-01-12T07:46:24.019Z,9.33
2019-01-12T07:51:16.948Z,9.93
2019-01-12T07:56:09.840Z,11.00
2019-01-12T08:01:02.818Z,11.70
2019-01-12T08:05:55.715Z,12.80
2019-01-12T08:10:48.567Z,13.87
2019-01-12T08:15:41.532Z,13.80
2019-01-12T08:20:34.471Z,13.60
2019-01-12T08:25:27.582Z,13.43
2019-01-12T08:30:20.478Z,13.70
2019-01-12T08:35:15.159Z,12.93
2019-01-12T08:40:10.075Z,14.37
2019-01-12T08:45:03.506Z,14.80
2019-01-12T08:49:56.467Z,14.60
2019-01-12T08:54:49.372Z,14.53
2019-01-12T08:59:42.403Z,13.33
2019-01-12T09:04:43.242Z,13.03
2019-01-12T09:09:30.137Z,12.20
2019-01-12T09:14:23.109Z,13.90
2019-01-12T09:19:16.004Z,13.47
2019-01-12T09:24:08.859Z,13.30
2019-01-12T09:29:01.721Z,11.83
2019-01-12T09:33:54.587Z,11.57
2019-01-12T09:38:48.757Z,12.67
2019-01-12T09:43:41.821Z,11.70
2019-01-12T09:48:34.777Z,11.80
2019-01-12T09:53:27.669Z,12.30
2019-01-12T09:58:20.629Z,11.07
2019-01-12T10:03:13.587Z,11.23
2019-01-12T10:08:06.428Z,12.10
2019-01-12T10:12:59.343Z,11.70
2019-01-12T10:17:52.212Z,12.20
2019-01-12T10:22:45.716Z,13.40
2019-01-12T10:27:39.121Z,11.67
2019-01-12T10:32:32.160Z,12.23
2019-01-12T10:37:25.029Z,11.37
2019-01-12T10:42:18.071Z,11.43
2019-01-12T10:47:10.995Z,12.40
2019-01-12T10:52:04.281Z,12.80
2019-01-12T10:56:57.216Z,12.17
2019-01-12T11:01:50.107Z,11.73
2019-01-12T11:06:42.971Z,12.27
2019-01-12T11:11:36.049Z,12.00
2019-01-12T11:16:29.057Z,12.63
2019-01-12T11:21:22.042Z,11.73
2019-01-12T11:26:14.968Z,11.80
2019-01-12T11:31:08.506Z,12.37
2019-01-12T11:36:01.372Z,11.33
2019-01-12T11:40:54.307Z,12.00
2019-01-12T11:45:47.245Z,10.93
2019-01-12T11:50:40.168Z,11.07
2019-01-12T11:55:33.041Z,10.60
2019-01-12T12:00:28.784Z,10.37
2019-01-12T12:05:23.398Z,9.60
2019-01-12T12:10:16.945Z,9.93
2019-01-12T12:15:11.469Z,10.10
2019-01-12T12:20:09.759Z,10.40
2019-01-12T12:25:02.760Z,10.60
2019-01-12T12:29:55.685Z,10.97
2019-01-12T12:34:48.854Z,11.57
2019-01-12T12:39:41.733Z,12.37
2019-01-12T12:44:34.601Z,12.43
2019-01-12T12:49:27.474Z,11.13
2019-01-12T12:54:20.338Z,11.73
2019-01-12T12:59:13.232Z,11.60
2019-01-12T13:04:06.104Z,12.10
2019-01-12T13:08:59.025Z,11.70
2019-01-12T13:13:51.997Z,11.73
2019-01-12T13:18:45.000Z,11.53
2019-01-12T13:23:37.863Z,11.90
2019-01-12T13:28:30.760Z,11.47
2019-01-12T13:33:23.696Z,10.70
2019-01-12T13:38:16.700Z,10.00
2019-01-12T13:43:09.692Z,9.73
2019-01-12T13:48:03.267Z,9.13
2019-01-12T13:52:56.790Z,8.13
2019-01-12T13:57:49.831Z,8.03
2019-01-12T14:02:42.835Z,6.80
2019-01-12T14:07:35.738Z,6.30
2019-01-12T14:12:28.652Z,5.27
2019-01-12T14:17:21.578Z,4.23
2019-01-12T14:22:14.591Z,4.23
2019-01-12T14:27:07.547Z,4.20
2019-01-12T14:32:00.447Z,4.50
2019-01-12T14:36:53.315Z,3.47
2019-01-12T14:41:46.217Z,3.37
2019-01-12T14:46:39.119Z,3.50
2019-01-12T14:51:32.107Z,4.00
2019-01-12T14:56:24.973Z,2.97
2019-01-12T15:01:17.867Z,2.87
2019-01-12T15:06:10.770Z,2.90
2019-01-12T15:11:03.839Z,3.10
2019-01-12T15:15:56.703Z,2.20
2019-01-12T15:20:49.777Z,2.70
2019-01-12T15:25:42.629Z,2.70
2019-01-12T15:30:35.521Z,2.70
2019-01-12T15:35:31.458Z,2.53
2019-01-12T15:40:24.415Z,2.50
2019-01-12T15:45:20.713Z,2.37
2019-01-12T15:50:17.148Z,2.37
2019-01-12T15:55:10.256Z,2.80
2019-01-12T16:00:05.252Z,2.73
2019-01-12T16:04:58.184Z,3.40
2019-01-12T16:09:51.301Z,2.60
2019-01-12T16:14:44.240Z,2.60
2019-01-12T16:19:37.094Z,3.03
2019-01-12T16:24:30.030Z,3.47
2019-01-12T16:29:22.921Z,3.90
2019-01-12T16:34:15.814Z,4.00
2019-01-12T16:39:08.930Z,3.60
2019-01-12T16:44:01.801Z,4.00
2019-01-12T16:48:54.783Z,4.00
2019-01-12T16:53:47.652Z,3.90
2019-01-12T16:58:40.628Z,6.40
2019-01-12T17:03:33.612Z,3.83
2019-01-12T17:08:26.577Z,3.60
2019-01-12T17:13:19.527Z,4.83
2019-01-12T17:18:12.410Z,5.20
2019-01-12T17:23:05.766Z,5.50
2019-01-12T17:27:58.738Z,5.90
2019-01-12T17:32:51.739Z,6.00
2019-01-12T17:37:46.480Z,6.00
2019-01-12T17:42:39.350Z,6.90
2019-01-12T17:47:32.319Z,6.13
2019-01-12T17:52:25.197Z,6.60
2019-01-12T17:57:18.123Z,6.70
2019-01-12T18:02:10.950Z,7.50
2019-01-12T18:07:03.897Z,7.73
2019-01-12T18:11:56.767Z,6.90
2019-01-12T18:16:49.709Z,7.17
2019-01-12T18:21:42.874Z,7.17
2019-01-12T18:26:35.765Z,6.53
2019-01-12T18:31:28.635Z,8.23
2019-01-12T18:36:21.814Z,9.47
2019-01-12T18:41:14.760Z,6.00
2019-01-12T18:46:12.104Z,5.30
2019-01-12T18:51:02.433Z,4.97
2019-01-12T18:55:55.336Z,4.50
2019-01-12T19:00:48.218Z,4.70
2019-01-12T19:05:41.111Z,4.70
2019-01-12T19:10:34.068Z,4.80
2019-01-12T19:15:29.695Z,4.80
2019-01-12T19:20:22.598Z,5.23
2019-01-12T19:25:16.107Z,5.40
2019-01-12T19:30:15.914Z,4.93
2019-01-12T19:35:08.779Z,4.70
2019-01-12T19:40:01.694Z,4.50
2019-01-12T19:44:54.698Z,4.97
2019-01-12T19:49:47.609Z,5.70
2019-01-12T19:54:40.541Z,5.80
2019-01-12T19:59:33.436Z,4.53
2019-01-12T20:04:26.301Z,4.87
2019-01-12T20:09:19.214Z,5.63
2019-01-12T20:14:12.153Z,6.73
2019-01-12T20:19:05.032Z,6.30
2019-01-12T20:23:57.892Z,5.17
2019-01-12T20:28:50.752Z,3.90
2019-01-12T20:33:57.860Z,3.13
2019-01-12T20:39:23.188Z,3.83
2019-01-12T20:45:11.017Z,3.80
2019-01-12T20:50:44.601Z,4.60
2019-01-12T20:56:02.709Z,6.00
2019-01-12T21:01:48.975Z,5.87
2019-01-12T21:07:50.337Z,6.47
2019-01-12T21:13:39.410Z,6.63
2019-01-12T21:18:32.331Z,6.43
2019-01-12T21:23:25.208Z,6.97
2019-01-12T21:28:18.103Z,5.70
2019-01-12T21:33:11.010Z,5.00
2019-01-12T21:38:03.928Z,4.90
2019-01-12T21:42:56.834Z,6.50
2019-01-12T21:47:50.935Z,5.40
2019-01-12T21:52:43.837Z,5.50
2019-01-12T21:57:39.509Z,6.33
2019-01-12T22:02:32.442Z,6.70
2019-01-12T22:07:25.537Z,6.83
2019-01-12T22:12:18.542Z,7.30
2019-01-12T22:17:11.456Z,6.80
2019-01-12T22:22:04.329Z,7.90
2019-01-12T22:26:57.310Z,7.10
2019-01-12T22:31:50.254Z,6.93
2019-01-12T22:36:43.261Z,7.33
2019-01-12T22:41:36.421Z,6.63
2019-01-12T22:46:29.346Z,6.93
2019-01-12T22:51:22.294Z,5.90
2019-01-12T22:56:15.185Z,6.23
2019-01-12T23:01:36.237Z,7.20
2019-01-12T23:06:29.099Z,8.20
2019-01-12T23:11:22.020Z,8.47
2019-01-12T23:16:15.028Z,8.80
2019-01-12T23:21:07.926Z,8.60
2019-01-12T23:26:00.804Z,8.90
2019-01-12T23:30:53.732Z,9.13
2019-01-12T23:35:46.639Z,8.50
2019-01-12T23:40:39.519Z,9.13
2019-01-12T23:45:32.419Z,9.00
2019-01-12T23:50:25.261Z,9.50
2019-01-12T23:55:18.161Z,9.93
